Edgerton, Kansas
Current Conditions -  °F | °C
As of 3:53 PM on Saturday 25 Oct 2014 (Local Time) from KIXD Reporting Station
Clear Clear  
Wind Chill: 80°   Ceiling: Unl
Heat Index: 80°   Visibility: 10mi
Dew Point: 56°   Wind: 5mph
Humidity: 43%   Direction: 130°SE
Pressure: 30.03"   Gusts: NA
Location:  38.76°N, 95.01°W
Report Text: KIXD 252053Z 13004KT 10SM CLR 27/13 A3003 RMK AO2 SLP160 T02670133 56013
Loading
Personal Weather Stations






























Interactive Weather Map
Tropical Storm Tracking
New forecast layout! Learn more

10-Day Weather Forecast

Advertisements
Track Severe Weather on mobile